Manchaug, Massachusetts
Current Conditions -  °F | °C
As of 12:54 PM on Thursday 18 Dec 2014 (Local Time) from KORH Reporting Station
Overcast Overcast  
Wind Chill: 27°   Ceiling: 2400
Heat Index: 36°   Visibility: 10mi
Dew Point: 27°   Wind: 15mph
Humidity: 70%   Direction: 300°WNW
Pressure: 29.77"   Gusts: 28mph
Location:  42.09°N, 71.75°W
Report Text: KORH 181754Z 30013G24KT 10SM OVC024 02/M03 A2977 RMK AO2 PK WND 29026/1658 SLP090 60000 T00221028 10028 21006 50000
Loading
Personal Weather Stations






























Interactive Weather Map New forecast layout! Learn more

10-Day Weather Forecast

Advertisements
Track Severe Weather on mobile